sensor_id;sensor_type;location;lat;lon;timestamp;temperature;humidity
15241;DHT22;7723;52.170;9.978;2022-10-16T00:01:27;13.90;99.90
15241;DHT22;7723;52.170;9.978;2022-10-16T00:03:56;13.90;99.90
15241;DHT22;7723;52.170;9.978;2022-10-16T00:06:23;13.90;99.90
15241;DHT22;7723;52.170;9.978;2022-10-16T00:08:51;13.80;99.90
15241;DHT22;7723;52.170;9.978;2022-10-16T00:11:20;13.80;99.90
15241;DHT22;7723;52.170;9.978;2022-10-16T00:13:51;13.70;99.90
15241;DHT22;7723;52.170;9.978;2022-10-16T00:16:18;13.70;99.90
15241;DHT22;7723;52.170;9.978;2022-10-16T00:18:46;13.70;99.90
15241;DHT22;7723;52.170;9.978;2022-10-16T00:21:15;13.60;99.90
15241;DHT22;7723;52.170;9.978;2022-10-16T00:23:43;13.70;99.90
15241;DHT22;7723;52.170;9.978;2022-10-16T00:26:13;13.70;99.90
15241;DHT22;7723;52.170;9.978;2022-10-16T00:28:40;13.70;99.90
15241;DHT22;7723;52.170;9.978;2022-10-16T00:31:10;13.70;99.90
15241;DHT22;7723;52.170;9.978;2022-10-16T00:33:39;13.70;99.90
15241;DHT22;7723;52.170;9.978;2022-10-16T00:36:08;13.70;99.90
15241;DHT22;7723;52.170;9.978;2022-10-16T00:38:36;13.70;99.90
15241;DHT22;7723;52.170;9.978;2022-10-16T00:41:05;13.70;99.90
15241;DHT22;7723;52.170;9.978;2022-10-16T00:43:35;13.80;99.90
15241;DHT22;7723;52.170;9.978;2022-10-16T00:46:04;13.70;99.90
15241;DHT22;7723;52.170;9.978;2022-10-16T00:48:33;13.90;99.90
15241;DHT22;7723;52.170;9.978;2022-10-16T00:51:00;13.80;99.90
15241;DHT22;7723;52.170;9.978;2022-10-16T00:53:28;13.80;99.90
15241;DHT22;7723;52.170;9.978;2022-10-16T00:55:55;13.80;99.90
15241;DHT22;7723;52.170;9.978;2022-10-16T00:58:23;13.80;99.90
15241;DHT22;7723;52.170;9.978;2022-10-16T01:00:50;13.90;99.90
15241;DHT22;7723;52.170;9.978;2022-10-16T01:03:26;14.00;99.90
15241;DHT22;7723;52.170;9.978;2022-10-16T01:06:04;14.00;99.90
15241;DHT22;7723;52.170;9.978;2022-10-16T01:08:42;14.00;99.90
15241;DHT22;7723;52.170;9.978;2022-10-16T01:11:17;14.10;99.90
15241;DHT22;7723;52.170;9.978;2022-10-16T01:13:50;14.10;99.90
15241;DHT22;7723;52.170;9.978;2022-10-16T01:16:26;14.00;99.90
15241;DHT22;7723;52.170;9.978;2022-10-16T01:19:00;13.90;99.90
15241;DHT22;7723;52.170;9.978;2022-10-16T01:21:33;13.90;99.90
15241;DHT22;7723;52.170;9.978;2022-10-16T01:24:06;13.90;99.90
15241;DHT22;7723;52.170;9.978;2022-10-16T01:26:46;13.80;99.90
15241;DHT22;7723;52.170;9.978;2022-10-16T01:29:20;13.90;99.90
15241;DHT22;7723;52.170;9.978;2022-10-16T01:31:54;13.80;99.90
15241;DHT22;7723;52.170;9.978;2022-10-16T01:34:25;13.90;99.90
15241;DHT22;7723;52.170;9.978;2022-10-16T01:37:04;14.00;99.90
15241;DHT22;7723;52.170;9.978;2022-10-16T01:39:35;13.90;99.90
15241;DHT22;7723;52.170;9.978;2022-10-16T01:42:07;13.80;99.90
15241;DHT22;7723;52.170;9.978;2022-10-16T01:44:38;13.80;99.90
15241;DHT22;7723;52.170;9.978;2022-10-16T01:47:06;13.80;99.90
15241;DHT22;7723;52.170;9.978;2022-10-16T01:49:36;13.70;99.90
15241;DHT22;7723;52.170;9.978;2022-10-16T01:52:09;13.80;99.90
15241;DHT22;7723;52.170;9.978;2022-10-16T01:54:39;13.80;99.90
15241;DHT22;7723;52.170;9.978;2022-10-16T01:57:08;13.70;99.90
15241;DHT22;7723;52.170;9.978;2022-10-16T01:59:43;13.70;99.90
15241;DHT22;7723;52.170;9.978;2022-10-16T02:02:11;13.70;99.90
15241;DHT22;7723;52.170;9.978;2022-10-16T02:04:43;13.60;99.90
15241;DHT22;7723;52.170;9.978;2022-10-16T02:07:12;13.70;99.90
15241;DHT22;7723;52.170;9.978;2022-10-16T02:09:40;13.80;99.90
15241;DHT22;7723;52.170;9.978;2022-10-16T02:12:12;13.70;99.90
15241;DHT22;7723;52.170;9.978;2022-10-16T02:14:41;13.70;99.90
15241;DHT22;7723;52.170;9.978;2022-10-16T02:17:13;13.60;99.90
15241;DHT22;7723;52.170;9.978;2022-10-16T02:19:42;13.70;99.90
15241;DHT22;7723;52.170;9.978;2022-10-16T02:22:12;13.60;99.90
15241;DHT22;7723;52.170;9.978;2022-10-16T02:24:46;13.60;99.90
15241;DHT22;7723;52.170;9.978;2022-10-16T02:27:19;13.60;99.90
15241;DHT22;7723;52.170;9.978;2022-10-16T02:29:55;13.50;99.90
15241;DHT22;7723;52.170;9.978;2022-10-16T02:32:28;13.50;99.90
15241;DHT22;7723;52.170;9.978;2022-10-16T02:34:56;13.40;99.90
15241;DHT22;7723;52.170;9.978;2022-10-16T02:37:25;13.40;99.90
15241;DHT22;7723;52.170;9.978;2022-10-16T02:39:53;13.30;99.90
15241;DHT22;7723;52.170;9.978;2022-10-16T02:42:20;13.30;99.90
15241;DHT22;7723;52.170;9.978;2022-10-16T02:44:47;13.30;99.90
15241;DHT22;7723;52.170;9.978;2022-10-16T02:47:16;13.30;99.90
15241;DHT22;7723;52.170;9.978;2022-10-16T02:49:43;13.30;99.90
15241;DHT22;7723;52.170;9.978;2022-10-16T02:52:10;13.30;99.90
15241;DHT22;7723;52.170;9.978;2022-10-16T02:54:37;13.30;99.90
15241;DHT22;7723;52.170;9.978;2022-10-16T02:57:05;13.20;99.90
15241;DHT22;7723;52.170;9.978;2022-10-16T02:59:32;13.20;99.90
15241;DHT22;7723;52.170;9.978;2022-10-16T03:01:59;13.30;99.90
15241;DHT22;7723;52.170;9.978;2022-10-16T03:04:27;13.30;99.90
15241;DHT22;7723;52.170;9.978;2022-10-16T03:06:54;13.30;99.90
15241;DHT22;7723;52.170;9.978;2022-10-16T03:09:22;13.20;99.90
15241;DHT22;7723;52.170;9.978;2022-10-16T03:11:49;13.30;99.90
15241;DHT22;7723;52.170;9.978;2022-10-16T03:14:16;13.30;99.90
15241;DHT22;7723;52.170;9.978;2022-10-16T03:16:43;13.30;99.90
15241;DHT22;7723;52.170;9.978;2022-10-16T03:19:10;13.20;99.90
15241;DHT22;7723;52.170;9.978;2022-10-16T03:21:39;13.40;99.90
15241;DHT22;7723;52.170;9.978;2022-10-16T03:24:06;13.50;99.90
15241;DHT22;7723;52.170;9.978;2022-10-16T03:26:33;13.50;99.90
15241;DHT22;7723;52.170;9.978;2022-10-16T03:29:00;13.40;99.90
15241;DHT22;7723;52.170;9.978;2022-10-16T03:31:29;13.30;99.90
15241;DHT22;7723;52.170;9.978;2022-10-16T03:33:56;13.40;99.90
15241;DHT22;7723;52.170;9.978;2022-10-16T03:36:23;13.30;99.90
15241;DHT22;7723;52.170;9.978;2022-10-16T03:38:52;13.30;99.90
15241;DHT22;7723;52.170;9.978;2022-10-16T03:41:19;13.20;99.90
15241;DHT22;7723;52.170;9.978;2022-10-16T03:43:46;13.10;99.90
15241;DHT22;7723;52.170;9.978;2022-10-16T03:46:13;13.20;99.90
15241;DHT22;7723;52.170;9.978;2022-10-16T03:48:40;13.10;99.90
15241;DHT22;7723;52.170;9.978;2022-10-16T03:51:08;13.10;99.90
15241;DHT22;7723;52.170;9.978;2022-10-16T03:53:35;13.10;99.90
15241;DHT22;7723;52.170;9.978;2022-10-16T03:56:03;13.00;99.90
15241;DHT22;7723;52.170;9.978;2022-10-16T03:58:30;13.00;99.90
15241;DHT22;7723;52.170;9.978;2022-10-16T04:00:58;13.00;99.90
15241;DHT22;7723;52.170;9.978;2022-10-16T04:03:25;12.90;99.90
15241;DHT22;7723;52.170;9.978;2022-10-16T04:05:52;12.90;99.90
15241;DHT22;7723;52.170;9.978;2022-10-16T04:08:19;13.10;99.90
15241;DHT22;7723;52.170;9.978;2022-10-16T04:10:46;12.90;99.90
15241;DHT22;7723;52.170;9.978;2022-10-16T04:13:15;13.00;99.90
15241;DHT22;7723;52.170;9.978;2022-10-16T04:15:42;13.00;99.90
15241;DHT22;7723;52.170;9.978;2022-10-16T04:18:09;13.00;99.90
15241;DHT22;7723;52.170;9.978;2022-10-16T04:20:36;13.00;99.90
15241;DHT22;7723;52.170;9.978;2022-10-16T04:23:04;13.10;99.90
15241;DHT22;7723;52.170;9.978;2022-10-16T04:25:31;13.00;99.90
15241;DHT22;7723;52.170;9.978;2022-10-16T04:27:58;12.90;99.90
15241;DHT22;7723;52.170;9.978;2022-10-16T04:30:27;12.90;99.90
15241;DHT22;7723;52.170;9.978;2022-10-16T04:32:54;13.00;99.90
15241;DHT22;7723;52.170;9.978;2022-10-16T04:35:21;13.00;99.90
15241;DHT22;7723;52.170;9.978;2022-10-16T04:37:49;13.20;99.90
15241;DHT22;7723;52.170;9.978;2022-10-16T04:40:17;13.20;99.90
15241;DHT22;7723;52.170;9.978;2022-10-16T04:42:44;13.30;99.90
15241;DHT22;7723;52.170;9.978;2022-10-16T04:45:11;13.30;99.90
15241;DHT22;7723;52.170;9.978;2022-10-16T04:47:40;13.40;99.90
15241;DHT22;7723;52.170;9.978;2022-10-16T04:50:08;13.40;99.90
15241;DHT22;7723;52.170;9.978;2022-10-16T04:52:35;13.50;99.90
15241;DHT22;7723;52.170;9.978;2022-10-16T04:55:02;13.70;99.90
15241;DHT22;7723;52.170;9.978;2022-10-16T04:57:29;13.60;99.90
15241;DHT22;7723;52.170;9.978;2022-10-16T04:59:57;13.50;99.90
15241;DHT22;7723;52.170;9.978;2022-10-16T05:02:24;13.60;99.90
15241;DHT22;7723;52.170;9.978;2022-10-16T05:04:53;13.80;99.90
15241;DHT22;7723;52.170;9.978;2022-10-16T05:07:20;13.80;99.90
15241;DHT22;7723;52.170;9.978;2022-10-16T05:09:47;13.90;99.90
15241;DHT22;7723;52.170;9.978;2022-10-16T05:12:14;13.90;99.90
15241;DHT22;7723;52.170;9.978;2022-10-16T05:14:41;13.90;99.90
15241;DHT22;7723;52.170;9.978;2022-10-16T05:17:08;13.90;99.90
15241;DHT22;7723;52.170;9.978;2022-10-16T05:19:35;13.90;99.90
15241;DHT22;7723;52.170;9.978;2022-10-16T05:22:04;14.00;99.90
15241;DHT22;7723;52.170;9.978;2022-10-16T05:24:31;14.00;99.90
15241;DHT22;7723;52.170;9.978;2022-10-16T05:26:58;14.10;99.90
15241;DHT22;7723;52.170;9.978;2022-10-16T05:29:26;14.00;99.90
15241;DHT22;7723;52.170;9.978;2022-10-16T05:31:53;14.00;99.90
15241;DHT22;7723;52.170;9.978;2022-10-16T05:34:21;13.90;99.90
15241;DHT22;7723;52.170;9.978;2022-10-16T05:36:48;14.00;99.90
15241;DHT22;7723;52.170;9.978;2022-10-16T05:39:17;13.90;99.90
15241;DHT22;7723;52.170;9.978;2022-10-16T05:41:44;13.90;99.90
15241;DHT22;7723;52.170;9.978;2022-10-16T05:44:12;13.80;99.90
15241;DHT22;7723;52.170;9.978;2022-10-16T05:46:39;13.80;99.90
15241;DHT22;7723;52.170;9.978;2022-10-16T05:49:06;13.80;99.90
15241;DHT22;7723;52.170;9.978;2022-10-16T05:51:33;13.70;99.90
15241;DHT22;7723;52.170;9.978;2022-10-16T05:54:00;13.60;99.90
15241;DHT22;7723;52.170;9.978;2022-10-16T05:56:29;13.70;99.90
15241;DHT22;7723;52.170;9.978;2022-10-16T05:58:56;13.80;99.90
15241;DHT22;7723;52.170;9.978;2022-10-16T06:01:23;13.70;99.90
15241;DHT22;7723;52.170;9.978;2022-10-16T06:03:51;13.70;99.90
15241;DHT22;7723;52.170;9.978;2022-10-16T06:06:19;13.90;99.90
15241;DHT22;7723;52.170;9.978;2022-10-16T06:08:48;13.90;99.90
15241;DHT22;7723;52.170;9.978;2022-10-16T06:11:17;13.90;99.90
15241;DHT22;7723;52.170;9.978;2022-10-16T06:13:49;13.90;99.90
15241;DHT22;7723;52.170;9.978;2022-10-16T06:16:16;13.90;99.90
15241;DHT22;7723;52.170;9.978;2022-10-16T06:18:44;14.00;99.90
15241;DHT22;7723;52.170;9.978;2022-10-16T06:21:14;14.00;99.90
15241;DHT22;7723;52.170;9.978;2022-10-16T06:23:43;14.00;99.90
15241;DHT22;7723;52.170;9.978;2022-10-16T06:26:13;14.10;99.90
15241;DHT22;7723;52.170;9.978;2022-10-16T06:28:40;14.20;99.90
15241;DHT22;7723;52.170;9.978;2022-10-16T06:31:10;14.20;99.90
15241;DHT22;7723;52.170;9.978;2022-10-16T06:33:38;14.20;99.90
15241;DHT22;7723;52.170;9.978;2022-10-16T06:36:08;14.30;99.90
15241;DHT22;7723;52.170;9.978;2022-10-16T06:38:37;14.40;99.90
15241;DHT22;7723;52.170;9.978;2022-10-16T06:41:05;14.60;99.90
15241;DHT22;7723;52.170;9.978;2022-10-16T06:43:33;14.70;99.90
15241;DHT22;7723;52.170;9.978;2022-10-16T06:46:02;14.80;99.90
15241;DHT22;7723;52.170;9.978;2022-10-16T06:48:31;14.80;99.90
15241;DHT22;7723;52.170;9.978;2022-10-16T06:50:59;14.80;99.90
15241;DHT22;7723;52.170;9.978;2022-10-16T06:53:27;14.90;99.90
15241;DHT22;7723;52.170;9.978;2022-10-16T06:55:55;14.90;99.90
15241;DHT22;7723;52.170;9.978;2022-10-16T06:58:23;14.90;99.90
15241;DHT22;7723;52.170;9.978;2022-10-16T07:00:55;15.00;99.90
15241;DHT22;7723;52.170;9.978;2022-10-16T07:03:23;15.20;99.90
15241;DHT22;7723;52.170;9.978;2022-10-16T07:05:52;15.40;99.90
15241;DHT22;7723;52.170;9.978;2022-10-16T07:08:19;15.70;99.90
15241;DHT22;7723;52.170;9.978;2022-10-16T07:10:46;15.80;99.90
15241;DHT22;7723;52.170;9.978;2022-10-16T07:13:13;16.10;99.90
15241;DHT22;7723;52.170;9.978;2022-10-16T07:15:41;16.70;99.90
15241;DHT22;7723;52.170;9.978;2022-10-16T07:18:08;17.20;99.90
15241;DHT22;7723;52.170;9.978;2022-10-16T07:20:35;17.50;99.90
15241;DHT22;7723;52.170;9.978;2022-10-16T07:23:04;17.50;99.90
15241;DHT22;7723;52.170;9.978;2022-10-16T07:25:31;17.70;99.90
15241;DHT22;7723;52.170;9.978;2022-10-16T07:27:58;17.90;99.90
15241;DHT22;7723;52.170;9.978;2022-10-16T07:30:25;18.40;99.90
15241;DHT22;7723;52.170;9.978;2022-10-16T07:32:53;18.60;99.90
15241;DHT22;7723;52.170;9.978;2022-10-16T07:35:20;19.10;99.90
15241;DHT22;7723;52.170;9.978;2022-10-16T07:37:47;18.80;74.20
15241;DHT22;7723;52.170;9.978;2022-10-16T07:40:16;18.80;66.40
15241;DHT22;7723;52.170;9.978;2022-10-16T07:42:43;18.60;41.60
15241;DHT22;7723;52.170;9.978;2022-10-16T07:45:11;18.90;36.00
15241;DHT22;7723;52.170;9.978;2022-10-16T07:47:38;19.20;25.30
15241;DHT22;7723;52.170;9.978;2022-10-16T07:50:05;19.20;16.80
15241;DHT22;7723;52.170;9.978;2022-10-16T07:52:33;19.50;15.60
15241;DHT22;7723;52.170;9.978;2022-10-16T07:55:00;19.40;11.10
15241;DHT22;7723;52.170;9.978;2022-10-16T07:57:29;19.30;9.20
15241;DHT22;7723;52.170;9.978;2022-10-16T07:59:56;19.60;7.10
15241;DHT22;7723;52.170;9.978;2022-10-16T08:02:23;19.90;1.00
15241;DHT22;7723;52.170;9.978;2022-10-16T08:04:50;20.20;1.00
15241;DHT22;7723;52.170;9.978;2022-10-16T08:07:17;20.40;1.00
15241;DHT22;7723;52.170;9.978;2022-10-16T08:09:44;19.90;1.00
15241;DHT22;7723;52.170;9.978;2022-10-16T08:12:11;19.40;1.00
15241;DHT22;7723;52.170;9.978;2022-10-16T08:14:40;19.70;1.00
15241;DHT22;7723;52.170;9.978;2022-10-16T08:17:07;20.20;1.00
15241;DHT22;7723;52.170;9.978;2022-10-16T08:19:34;20.20;1.00
15241;DHT22;7723;52.170;9.978;2022-10-16T08:22:01;20.10;1.00
15241;DHT22;7723;52.170;9.978;2022-10-16T08:24:28;19.60;1.00
15241;DHT22;7723;52.170;9.978;2022-10-16T08:26:56;19.40;1.00
15241;DHT22;7723;52.170;9.978;2022-10-16T08:29:24;19.40;1.00
15241;DHT22;7723;52.170;9.978;2022-10-16T08:31:52;19.30;1.00
15241;DHT22;7723;52.170;9.978;2022-10-16T08:34:19;19.20;1.00
15241;DHT22;7723;52.170;9.978;2022-10-16T08:36:46;18.90;1.00
15241;DHT22;7723;52.170;9.978;2022-10-16T08:39:14;18.80;1.00
15241;DHT22;7723;52.170;9.978;2022-10-16T08:42:11;18.90;1.00
15241;DHT22;7723;52.170;9.978;2022-10-16T08:45:01;18.70;1.00
15241;DHT22;7723;52.170;9.978;2022-10-16T08:47:39;18.80;1.00
15241;DHT22;7723;52.170;9.978;2022-10-16T08:50:11;19.20;1.00
15241;DHT22;7723;52.170;9.978;2022-10-16T08:52:43;19.00;1.00
15241;DHT22;7723;52.170;9.978;2022-10-16T08:55:27;19.30;1.00
15241;DHT22;7723;52.170;9.978;2022-10-16T08:57:55;19.50;1.00
15241;DHT22;7723;52.170;9.978;2022-10-16T09:00:23;19.70;1.00
15241;DHT22;7723;52.170;9.978;2022-10-16T09:03:00;19.90;1.00
15241;DHT22;7723;52.170;9.978;2022-10-16T09:05:52;19.80;1.00
15241;DHT22;7723;52.170;9.978;2022-10-16T09:08:29;19.90;1.00
15241;DHT22;7723;52.170;9.978;2022-10-16T09:11:01;20.10;1.00
15241;DHT22;7723;52.170;9.978;2022-10-16T09:13:35;20.20;1.00
15241;DHT22;7723;52.170;9.978;2022-10-16T09:16:13;20.00;1.00
15241;DHT22;7723;52.170;9.978;2022-10-16T09:18:48;19.70;1.00
15241;DHT22;7723;52.170;9.978;2022-10-16T09:21:21;19.80;1.00
15241;DHT22;7723;52.170;9.978;2022-10-16T09:23:50;20.00;1.00
15241;DHT22;7723;52.170;9.978;2022-10-16T09:26:18;19.90;1.00
15241;DHT22;7723;52.170;9.978;2022-10-16T09:28:47;19.90;1.00
15241;DHT22;7723;52.170;9.978;2022-10-16T09:31:19;20.00;1.00
15241;DHT22;7723;52.170;9.978;2022-10-16T09:33:52;19.90;1.00
15241;DHT22;7723;52.170;9.978;2022-10-16T09:36:21;19.50;1.00
15241;DHT22;7723;52.170;9.978;2022-10-16T09:38:49;19.30;1.00
15241;DHT22;7723;52.170;9.978;2022-10-16T09:41:21;19.60;1.00
15241;DHT22;7723;52.170;9.978;2022-10-16T09:43:54;19.90;1.00
15241;DHT22;7723;52.170;9.978;2022-10-16T09:46:25;20.00;1.00
15241;DHT22;7723;52.170;9.978;2022-10-16T09:48:57;20.00;1.00
15241;DHT22;7723;52.170;9.978;2022-10-16T09:51:27;20.00;1.00
15241;DHT22;7723;52.170;9.978;2022-10-16T09:53:57;20.50;1.00
15241;DHT22;7723;52.170;9.978;2022-10-16T09:56:27;20.50;1.00
15241;DHT22;7723;52.170;9.978;2022-10-16T09:58:56;20.70;1.00
15241;DHT22;7723;52.170;9.978;2022-10-16T10:01:29;20.50;1.00
15241;DHT22;7723;52.170;9.978;2022-10-16T10:03:58;19.90;1.00
15241;DHT22;7723;52.170;9.978;2022-10-16T10:06:30;19.60;1.00
15241;DHT22;7723;52.170;9.978;2022-10-16T10:09:02;19.60;1.00
15241;DHT22;7723;52.170;9.978;2022-10-16T10:11:45;19.50;1.00
15241;DHT22;7723;52.170;9.978;2022-10-16T10:14:22;19.50;1.00
15241;DHT22;7723;52.170;9.978;2022-10-16T10:16:51;19.40;1.00
15241;DHT22;7723;52.170;9.978;2022-10-16T10:19:21;19.30;1.00
15241;DHT22;7723;52.170;9.978;2022-10-16T10:21:50;18.90;1.00
15241;DHT22;7723;52.170;9.978;2022-10-16T10:24:18;18.90;1.00
15241;DHT22;7723;52.170;9.978;2022-10-16T10:26:56;19.00;1.00
15241;DHT22;7723;52.170;9.978;2022-10-16T10:29:38;18.90;1.00
15241;DHT22;7723;52.170;9.978;2022-10-16T10:32:17;18.90;1.00
15241;DHT22;7723;52.170;9.978;2022-10-16T10:34:56;19.20;1.00
15241;DHT22;7723;52.170;9.978;2022-10-16T10:37:41;19.30;1.00
15241;DHT22;7723;52.170;9.978;2022-10-16T10:40:22;19.20;1.00
15241;DHT22;7723;52.170;9.978;2022-10-16T10:42:57;19.30;1.00
15241;DHT22;7723;52.170;9.978;2022-10-16T10:45:27;19.40;1.00
15241;DHT22;7723;52.170;9.978;2022-10-16T10:48:10;19.20;1.00
15241;DHT22;7723;52.170;9.978;2022-10-16T10:50:44;19.20;1.00
15241;DHT22;7723;52.170;9.978;2022-10-16T10:53:31;19.20;1.00
15241;DHT22;7723;52.170;9.978;2022-10-16T10:56:10;19.10;1.00
15241;DHT22;7723;52.170;9.978;2022-10-16T10:59:05;19.00;1.00
15241;DHT22;7723;52.170;9.978;2022-10-16T11:01:39;19.00;1.00
15241;DHT22;7723;52.170;9.978;2022-10-16T11:04:28;18.80;1.00
15241;DHT22;7723;52.170;9.978;2022-10-16T11:07:00;18.70;1.00
15241;DHT22;7723;52.170;9.978;2022-10-16T11:09:34;18.50;1.00
15241;DHT22;7723;52.170;9.978;2022-10-16T11:12:07;18.30;1.00
15241;DHT22;7723;52.170;9.978;2022-10-16T11:14:42;18.30;1.00
15241;DHT22;7723;52.170;9.978;2022-10-16T11:17:14;18.10;1.00
15241;DHT22;7723;52.170;9.978;2022-10-16T11:19:48;17.90;1.00
15241;DHT22;7723;52.170;9.978;2022-10-16T11:22:22;17.80;1.00
15241;DHT22;7723;52.170;9.978;2022-10-16T11:24:54;17.70;1.00
15241;DHT22;7723;52.170;9.978;2022-10-16T11:27:26;17.60;1.00
15241;DHT22;7723;52.170;9.978;2022-10-16T11:29:59;17.60;1.00
15241;DHT22;7723;52.170;9.978;2022-10-16T11:32:33;17.80;1.00
15241;DHT22;7723;52.170;9.978;2022-10-16T11:35:08;17.80;1.00
15241;DHT22;7723;52.170;9.978;2022-10-16T11:37:42;17.80;1.00
15241;DHT22;7723;52.170;9.978;2022-10-16T11:40:19;17.60;1.00
15241;DHT22;7723;52.170;9.978;2022-10-16T11:42:51;17.80;1.00
15241;DHT22;7723;52.170;9.978;2022-10-16T11:45:28;18.10;1.00
15241;DHT22;7723;52.170;9.978;2022-10-16T11:48:02;18.30;1.00
15241;DHT22;7723;52.170;9.978;2022-10-16T11:50:34;18.50;1.00
15241;DHT22;7723;52.170;9.978;2022-10-16T11:53:13;18.60;1.00
15241;DHT22;7723;52.170;9.978;2022-10-16T11:55:44;18.70;1.00
15241;DHT22;7723;52.170;9.978;2022-10-16T11:58:16;18.70;1.00
15241;DHT22;7723;52.170;9.978;2022-10-16T12:00:51;18.80;1.00
15241;DHT22;7723;52.170;9.978;2022-10-16T12:03:24;18.90;1.00
15241;DHT22;7723;52.170;9.978;2022-10-16T12:06:01;19.00;1.00
15241;DHT22;7723;52.170;9.978;2022-10-16T12:08:35;18.90;1.00
15241;DHT22;7723;52.170;9.978;2022-10-16T12:11:20;18.80;1.00
15241;DHT22;7723;52.170;9.978;2022-10-16T12:13:49;18.80;1.00
15241;DHT22;7723;52.170;9.978;2022-10-16T12:16:23;18.70;1.00
15241;DHT22;7723;52.170;9.978;2022-10-16T12:19:10;18.70;1.00
15241;DHT22;7723;52.170;9.978;2022-10-16T12:21:38;18.70;1.00
15241;DHT22;7723;52.170;9.978;2022-10-16T12:24:07;18.80;1.00
15241;DHT22;7723;52.170;9.978;2022-10-16T12:26:47;18.80;1.00
15241;DHT22;7723;52.170;9.978;2022-10-16T12:29:23;18.70;1.00
15241;DHT22;7723;52.170;9.978;2022-10-16T12:31:54;18.70;1.00
15241;DHT22;7723;52.170;9.978;2022-10-16T12:34:26;18.70;1.00
15241;DHT22;7723;52.170;9.978;2022-10-16T12:36:54;18.70;1.00
15241;DHT22;7723;52.170;9.978;2022-10-16T12:39:25;18.80;1.00
15241;DHT22;7723;52.170;9.978;2022-10-16T12:42:02;18.80;1.00
15241;DHT22;7723;52.170;9.978;2022-10-16T12:44:33;18.80;1.00
15241;DHT22;7723;52.170;9.978;2022-10-16T12:47:00;18.80;1.00
15241;DHT22;7723;52.170;9.978;2022-10-16T12:49:35;18.80;1.00
15241;DHT22;7723;52.170;9.978;2022-10-16T12:52:03;18.80;1.00
15241;DHT22;7723;52.170;9.978;2022-10-16T12:54:36;18.80;1.00
15241;DHT22;7723;52.170;9.978;2022-10-16T12:57:19;18.80;1.00
15241;DHT22;7723;52.170;9.978;2022-10-16T12:59:54;18.70;1.00
15241;DHT22;7723;52.170;9.978;2022-10-16T13:02:53;18.50;1.00
15241;DHT22;7723;52.170;9.978;2022-10-16T13:05:39;18.30;1.00
15241;DHT22;7723;52.170;9.978;2022-10-16T13:08:25;18.10;1.00
15241;DHT22;7723;52.170;9.978;2022-10-16T13:11:04;18.00;1.00
15241;DHT22;7723;52.170;9.978;2022-10-16T13:13:42;18.10;1.00
15241;DHT22;7723;52.170;9.978;2022-10-16T13:16:19;18.20;1.00
15241;DHT22;7723;52.170;9.978;2022-10-16T13:18:57;18.30;1.00
15241;DHT22;7723;52.170;9.978;2022-10-16T13:21:35;18.50;1.00
15241;DHT22;7723;52.170;9.978;2022-10-16T13:24:14;18.50;1.00
15241;DHT22;7723;52.170;9.978;2022-10-16T13:26:52;18.60;1.00
15241;DHT22;7723;52.170;9.978;2022-10-16T13:29:22;18.60;1.00
15241;DHT22;7723;52.170;9.978;2022-10-16T13:31:53;18.60;1.00
15241;DHT22;7723;52.170;9.978;2022-10-16T13:34:23;18.60;1.00
15241;DHT22;7723;52.170;9.978;2022-10-16T13:36:51;18.60;1.00
15241;DHT22;7723;52.170;9.978;2022-10-16T13:39:22;18.60;1.00
15241;DHT22;7723;52.170;9.978;2022-10-16T13:42:02;18.60;1.00
15241;DHT22;7723;52.170;9.978;2022-10-16T13:44:35;18.70;1.00
15241;DHT22;7723;52.170;9.978;2022-10-16T13:47:03;18.80;1.00
15241;DHT22;7723;52.170;9.978;2022-10-16T13:49:30;18.80;1.00
15241;DHT22;7723;52.170;9.978;2022-10-16T13:51:58;18.80;1.00
15241;DHT22;7723;52.170;9.978;2022-10-16T13:54:27;18.70;1.00
15241;DHT22;7723;52.170;9.978;2022-10-16T13:56:55;18.70;1.00
15241;DHT22;7723;52.170;9.978;2022-10-16T13:59:33;18.70;1.00
15241;DHT22;7723;52.170;9.978;2022-10-16T14:02:05;18.80;1.00
15241;DHT22;7723;52.170;9.978;2022-10-16T14:04:38;18.70;1.00
15241;DHT22;7723;52.170;9.978;2022-10-16T14:07:13;18.70;1.00
15241;DHT22;7723;52.170;9.978;2022-10-16T14:09:41;18.70;1.00
15241;DHT22;7723;52.170;9.978;2022-10-16T14:12:11;18.80;1.00
15241;DHT22;7723;52.170;9.978;2022-10-16T14:14:44;18.80;1.00
15241;DHT22;7723;52.170;9.978;2022-10-16T14:17:15;18.60;1.00
15241;DHT22;7723;52.170;9.978;2022-10-16T14:19:46;18.50;1.00
15241;DHT22;7723;52.170;9.978;2022-10-16T14:22:27;18.50;1.00
15241;DHT22;7723;52.170;9.978;2022-10-16T14:24:55;18.50;1.00
15241;DHT22;7723;52.170;9.978;2022-10-16T14:27:28;18.50;1.00
15241;DHT22;7723;52.170;9.978;2022-10-16T14:30:14;18.50;1.00
15241;DHT22;7723;52.170;9.978;2022-10-16T14:32:54;18.40;1.00
15241;DHT22;7723;52.170;9.978;2022-10-16T14:35:30;18.30;1.00
15241;DHT22;7723;52.170;9.978;2022-10-16T14:37:59;18.20;1.00
15241;DHT22;7723;52.170;9.978;2022-10-16T14:40:29;18.20;1.00
15241;DHT22;7723;52.170;9.978;2022-10-16T14:42:56;18.20;1.00
15241;DHT22;7723;52.170;9.978;2022-10-16T14:45:27;18.10;1.00
15241;DHT22;7723;52.170;9.978;2022-10-16T14:47:56;18.10;1.00
15241;DHT22;7723;52.170;9.978;2022-10-16T14:50:24;18.10;1.00
15241;DHT22;7723;52.170;9.978;2022-10-16T14:52:51;18.10;1.00
15241;DHT22;7723;52.170;9.978;2022-10-16T14:55:19;18.00;1.00
15241;DHT22;7723;52.170;9.978;2022-10-16T14:57:47;18.00;1.00
15241;DHT22;7723;52.170;9.978;2022-10-16T15:00:17;18.00;1.00
15241;DHT22;7723;52.170;9.978;2022-10-16T15:02:48;18.00;1.00
15241;DHT22;7723;52.170;9.978;2022-10-16T15:05:18;17.90;1.00
15241;DHT22;7723;52.170;9.978;2022-10-16T15:07:45;17.90;1.00
15241;DHT22;7723;52.170;9.978;2022-10-16T15:10:13;17.80;1.00
15241;DHT22;7723;52.170;9.978;2022-10-16T15:12:41;17.70;1.00
15241;DHT22;7723;52.170;9.978;2022-10-16T15:15:33;17.70;1.00
15241;DHT22;7723;52.170;9.978;2022-10-16T15:18:03;17.60;1.00
15241;DHT22;7723;52.170;9.978;2022-10-16T15:20:32;17.60;1.00
15241;DHT22;7723;52.170;9.978;2022-10-16T15:23:00;17.50;1.00
15241;DHT22;7723;52.170;9.978;2022-10-16T15:25:32;17.40;1.00
15241;DHT22;7723;52.170;9.978;2022-10-16T15:28:01;17.30;1.00
15241;DHT22;7723;52.170;9.978;2022-10-16T15:30:29;17.30;1.00
15241;DHT22;7723;52.170;9.978;2022-10-16T15:32:56;17.30;1.00
15241;DHT22;7723;52.170;9.978;2022-10-16T15:35:26;17.20;1.00
15241;DHT22;7723;52.170;9.978;2022-10-16T15:37:53;17.20;1.00
15241;DHT22;7723;52.170;9.978;2022-10-16T15:40:21;17.00;1.00
15241;DHT22;7723;52.170;9.978;2022-10-16T15:42:49;16.90;1.00
15241;DHT22;7723;52.170;9.978;2022-10-16T15:45:17;16.80;1.00
15241;DHT22;7723;52.170;9.978;2022-10-16T15:47:45;16.60;1.00
15241;DHT22;7723;52.170;9.978;2022-10-16T15:50:13;16.50;1.00
15241;DHT22;7723;52.170;9.978;2022-10-16T15:52:42;16.40;1.00
15241;DHT22;7723;52.170;9.978;2022-10-16T15:55:12;16.30;1.00
15241;DHT22;7723;52.170;9.978;2022-10-16T15:57:39;16.20;1.00
15241;DHT22;7723;52.170;9.978;2022-10-16T16:00:11;16.00;1.00
15241;DHT22;7723;52.170;9.978;2022-10-16T16:02:39;15.90;1.00
15241;DHT22;7723;52.170;9.978;2022-10-16T16:05:07;15.90;1.00
15241;DHT22;7723;52.170;9.978;2022-10-16T16:07:36;15.70;1.00
15241;DHT22;7723;52.170;9.978;2022-10-16T16:10:07;15.60;1.00
15241;DHT22;7723;52.170;9.978;2022-10-16T16:12:35;15.60;1.00
15241;DHT22;7723;52.170;9.978;2022-10-16T16:15:03;15.50;1.00
15241;DHT22;7723;52.170;9.978;2022-10-16T16:17:31;15.30;1.00